createdAt,value
2023-05-14T00:03:51.122Z,10.82
2023-05-14T00:08:52.755Z,10.81
2023-05-14T00:14:02.666Z,10.81
2023-05-14T00:18:56.277Z,10.83
2023-05-14T00:23:58.252Z,10.85
2023-05-14T00:29:00.284Z,10.87
2023-05-14T00:34:02.445Z,10.9
2023-05-14T00:39:04.538Z,10.93
2023-05-14T00:44:06.041Z,10.95
2023-05-14T00:49:08.089Z,10.98
2023-05-14T00:54:10.039Z,10.99
2023-05-14T00:59:11.796Z,10.99
2023-05-14T01:04:23.967Z,10.97
2023-05-14T01:09:15.349Z,10.95
2023-05-14T01:14:17.283Z,10.95
2023-05-14T01:19:19.361Z,10.96
2023-05-14T01:24:20.940Z,10.96
2023-05-14T01:29:22.832Z,10.97
2023-05-14T01:34:24.195Z,10.97
2023-05-14T01:39:26.330Z,10.98
2023-05-14T01:44:28.136Z,10.99
2023-05-14T01:49:29.761Z,10.95
2023-05-14T01:54:31.367Z,10.95
2023-05-14T01:59:33.280Z,10.97
2023-05-14T02:04:34.883Z,10.97
2023-05-14T02:09:36.943Z,10.98
2023-05-14T02:14:38.325Z,10.99
2023-05-14T02:19:40.238Z,10.96
2023-05-14T02:24:41.545Z,10.97
2023-05-14T02:29:43.441Z,10.96
2023-05-14T02:34:45.578Z,10.96
2023-05-14T02:39:47.721Z,10.97
2023-05-14T02:44:49.738Z,10.98
2023-05-14T02:49:51.706Z,10.99
2023-05-14T02:54:53.437Z,11
2023-05-14T02:59:54.815Z,10.98
2023-05-14T03:04:56.082Z,10.98
2023-05-14T03:09:58.216Z,10.98
2023-05-14T03:15:00.260Z,10.96
2023-05-14T03:20:02.373Z,10.95
2023-05-14T03:25:04.488Z,10.93
2023-05-14T03:30:06.520Z,10.93
2023-05-14T03:35:08.388Z,10.9
2023-05-14T03:40:09.950Z,10.91
2023-05-14T03:45:11.134Z,10.91
2023-05-14T03:50:12.518Z,10.92
2023-05-14T03:55:13.912Z,10.9
2023-05-14T04:00:15.183Z,10.89
2023-05-14T04:05:16.636Z,10.89
2023-05-14T04:10:18.235Z,10.88
2023-05-14T04:15:19.679Z,10.83
2023-05-14T04:20:21.702Z,10.74
2023-05-14T04:25:23.680Z,10.65
2023-05-14T04:30:25.717Z,10.64
2023-05-14T04:35:27.432Z,10.66
2023-05-14T04:40:28.668Z,10.67
2023-05-14T04:45:31.318Z,10.72
2023-05-14T04:50:31.319Z,10.71
2023-05-14T04:55:32.546Z,10.75
2023-05-14T05:00:33.886Z,10.73
2023-05-14T05:05:35.483Z,10.78
2023-05-14T05:10:36.697Z,10.82
2023-05-14T05:15:38.346Z,10.87
2023-05-14T05:20:40.388Z,10.91
2023-05-14T05:25:42.182Z,10.92
2023-05-14T05:30:44.120Z,10.98
2023-05-14T05:35:45.727Z,11
2023-05-14T05:40:47.280Z,11.04
2023-05-14T05:45:48.864Z,11.06
2023-05-14T05:50:50.087Z,11.08
2023-05-14T05:55:51.765Z,11.15
2023-05-14T06:00:52.942Z,11.22
2023-05-14T06:05:54.711Z,11.28
2023-05-14T06:10:56.737Z,11.35
2023-05-14T06:15:58.210Z,11.42
2023-05-14T06:21:00.224Z,11.48
2023-05-14T06:26:01.777Z,11.52
2023-05-14T06:31:03.328Z,11.56
2023-05-14T06:31:09.684Z,11.56
2023-05-14T06:36:11.553Z,11.6
2023-05-14T06:41:13.403Z,11.62
2023-05-14T06:46:14.860Z,11.63
2023-05-14T06:51:16.223Z,11.69
2023-05-14T06:56:17.916Z,11.71
2023-05-14T07:01:19.454Z,11.63
2023-05-14T07:06:20.693Z,11.61
2023-05-14T07:11:22.335Z,11.67
2023-05-14T07:16:24.330Z,11.81
2023-05-14T07:21:26.372Z,11.87
2023-05-14T07:26:32.551Z,11.91
2023-05-14T07:31:28.899Z,11.94
2023-05-14T07:36:30.387Z,11.99
2023-05-14T07:41:32.090Z,12.05
2023-05-14T07:46:33.989Z,11.97
2023-05-14T07:51:35.253Z,11.94
2023-05-14T07:56:36.640Z,11.91
2023-05-14T08:01:39.397Z,11.9
2023-05-14T08:06:40.506Z,11.92
2023-05-14T08:11:41.921Z,11.9
2023-05-14T08:16:44.130Z,11.87
2023-05-14T08:21:45.961Z,11.88
2023-05-14T08:26:47.176Z,11.91
2023-05-14T08:31:48.821Z,12
2023-05-14T08:36:50.628Z,11.92
2023-05-14T08:41:52.557Z,11.84
2023-05-14T08:46:53.827Z,11.87
2023-05-14T08:51:55.167Z,11.9
2023-05-14T08:57:05.749Z,11.93
2023-05-14T09:01:58.793Z,11.9
2023-05-14T09:07:00.579Z,11.82
2023-05-14T09:12:02.407Z,11.78
2023-05-14T09:17:04.273Z,11.87
2023-05-14T09:22:05.443Z,12.03
2023-05-14T09:27:06.868Z,12.07
2023-05-14T09:32:08.508Z,11.99
2023-05-14T09:37:10.007Z,12.08
2023-05-14T09:42:11.425Z,12.18
2023-05-14T09:47:12.951Z,12.26
2023-05-14T09:52:14.662Z,12.4
2023-05-14T09:57:15.912Z,12.53
2023-05-14T10:02:17.675Z,12.65
2023-05-14T10:07:19.753Z,12.71
2023-05-14T10:12:21.295Z,12.77
2023-05-14T10:17:22.755Z,12.85
2023-05-14T10:22:24.804Z,12.9
2023-05-14T10:27:26.108Z,12.88
2023-05-14T10:32:27.543Z,12.88
2023-05-14T10:37:29.079Z,12.9
2023-05-14T10:42:31.085Z,12.96
2023-05-14T10:47:33.272Z,13.04
2023-05-14T10:52:34.899Z,13.16
2023-05-14T10:57:37.105Z,13.25
2023-05-14T11:02:39.165Z,13.4
2023-05-14T11:07:40.509Z,13.54
2023-05-14T11:12:42.555Z,13.7
2023-05-14T11:17:44.712Z,13.89
2023-05-14T11:22:46.450Z,14.11
2023-05-14T11:27:47.810Z,14.34
2023-05-14T11:32:49.671Z,14.52
2023-05-14T11:37:51.793Z,14.71
2023-05-14T11:42:53.221Z,14.89
2023-05-14T11:47:55.425Z,15.04
2023-05-14T11:52:56.686Z,15.17
2023-05-14T11:57:58.859Z,15.14
2023-05-14T12:03:00.919Z,15.32
2023-05-14T12:08:02.826Z,15.53
2023-05-14T12:13:04.460Z,15.65
2023-05-14T12:18:10.984Z,15.87
2023-05-14T12:23:07.926Z,16.19
2023-05-14T12:28:09.102Z,16.4
2023-05-14T12:33:10.903Z,16.68
2023-05-14T12:38:12.559Z,16.65
2023-05-14T13:08:24.077Z,23.08
2023-05-14T13:18:27.470Z,23.73
2023-05-14T13:28:30.928Z,25.17
2023-05-14T13:48:37.034Z,26.14
2023-05-14T13:53:38.684Z,26.17
2023-05-14T14:13:46.823Z,24.74
2023-05-14T14:23:49.235Z,23.48
2023-05-14T14:33:52.100Z,20.91
2023-05-14T14:43:55.976Z,19.56
2023-05-14T14:48:57.810Z,17.74
2023-05-14T14:53:59.415Z,16.87
2023-05-14T14:59:00.606Z,16.29
2023-05-14T15:04:02.455Z,15.57
2023-05-14T15:09:03.741Z,15.39
2023-05-14T15:14:05.390Z,14.87
2023-05-14T15:19:07.171Z,14.71
2023-05-14T15:24:08.779Z,14.57
2023-05-14T15:29:10.367Z,14.45
2023-05-14T15:34:12.510Z,14.37
2023-05-14T15:39:14.461Z,14.28
2023-05-14T15:44:16.537Z,14.21
2023-05-14T15:49:18.575Z,14.15
2023-05-14T15:54:20.308Z,14.13
2023-05-14T15:59:21.845Z,14.11
2023-05-14T16:04:23.624Z,14.08
2023-05-14T16:09:25.162Z,14.06
2023-05-14T16:14:26.623Z,14.05
2023-05-14T16:19:28.427Z,14.04
2023-05-14T16:24:30.443Z,13.97
2023-05-14T16:29:32.054Z,13.82
2023-05-14T16:34:34.030Z,13.82
2023-05-14T16:39:35.759Z,13.79
2023-05-14T16:44:37.825Z,13.75
2023-05-14T16:49:39.965Z,13.73
2023-05-14T16:54:41.565Z,13.7
2023-05-14T16:59:43.261Z,13.67
2023-05-14T17:04:45.425Z,13.67
2023-05-14T17:09:46.842Z,13.67
2023-05-14T17:14:48.367Z,13.66
2023-05-14T17:19:50.306Z,13.66
2023-05-14T17:24:51.777Z,13.65
2023-05-14T17:29:53.000Z,13.59
2023-05-14T17:34:55.032Z,13.57
2023-05-14T17:39:56.397Z,13.53
2023-05-14T17:44:58.520Z,13.5
2023-05-14T17:49:59.948Z,13.47
2023-05-14T17:55:02.117Z,13.41
2023-05-14T18:00:04.193Z,13.34
2023-05-14T18:05:05.923Z,13.27
2023-05-14T18:10:08.001Z,13.21
2023-05-14T18:15:09.175Z,13.16
2023-05-14T18:20:10.635Z,13.12
2023-05-14T18:25:12.152Z,13.06
2023-05-14T18:30:14.007Z,13.01
2023-05-14T18:35:15.215Z,12.94
2023-05-14T18:40:18.578Z,12.86
2023-05-14T18:45:18.348Z,12.79
2023-05-14T18:50:19.583Z,12.75
2023-05-14T18:55:20.982Z,12.7
2023-05-14T19:00:22.387Z,12.61
2023-05-14T19:05:24.488Z,12.54
2023-05-14T19:10:25.857Z,12.47
2023-05-14T19:15:27.457Z,12.42
2023-05-14T19:20:28.789Z,12.37
2023-05-14T19:25:30.894Z,12.31
2023-05-14T19:30:32.857Z,12.23
2023-05-14T19:35:34.084Z,12.12
2023-05-14T19:40:35.754Z,12.05
2023-05-14T19:45:37.057Z,11.96
2023-05-14T19:50:38.553Z,11.88
2023-05-14T19:55:40.171Z,11.85
2023-05-14T20:00:51.300Z,11.79
2023-05-14T20:05:43.882Z,11.75
2023-05-14T20:10:45.731Z,11.73
2023-05-14T20:15:47.870Z,11.73
2023-05-14T20:20:49.439Z,11.71
2023-05-14T20:25:51.311Z,11.63
2023-05-14T20:30:52.896Z,11.41
2023-05-14T20:35:54.217Z,11.22
2023-05-14T20:40:56.134Z,11.02
2023-05-14T20:45:57.416Z,10.86
2023-05-14T20:50:58.672Z,10.73
2023-05-14T20:55:59.959Z,10.61
2023-05-14T21:01:01.483Z,10.54
2023-05-14T21:06:03.474Z,10.54
2023-05-14T21:11:05.411Z,10.46
2023-05-14T21:16:07.652Z,10.47
2023-05-14T21:21:09.123Z,10.46
2023-05-14T21:26:10.914Z,10.48
2023-05-14T21:31:12.399Z,10.38
2023-05-14T21:36:14.294Z,10.41
2023-05-14T21:41:16.004Z,10.37
2023-05-14T21:46:18.077Z,10.36
2023-05-14T21:51:19.874Z,10.4
2023-05-14T21:56:21.196Z,10.42
2023-05-14T22:01:23.160Z,10.4
2023-05-14T22:06:24.691Z,10.46
2023-05-14T22:11:26.086Z,10.44
2023-05-14T22:16:28.000Z,10.4
2023-05-14T22:21:29.225Z,10.33
2023-05-14T22:26:31.190Z,10.35
2023-05-14T22:31:32.471Z,10.35
2023-05-14T22:36:33.829Z,10.43
2023-05-14T22:41:35.074Z,10.5
2023-05-14T22:46:37.088Z,10.49
2023-05-14T22:51:48.166Z,10.45
2023-05-14T22:56:40.867Z,10.41
2023-05-14T23:01:42.982Z,10.43
2023-05-14T23:06:44.964Z,10.44
2023-05-14T23:11:46.249Z,10.47
2023-05-14T23:16:48.315Z,10.44
2023-05-14T23:21:56.601Z,10.48
2023-05-14T23:26:57.814Z,10.52
2023-05-14T23:31:59.159Z,10.53
2023-05-14T23:37:01.133Z,10.54
2023-05-14T23:42:03.002Z,10.52
2023-05-14T23:47:04.828Z,10.51
2023-05-14T23:52:06.255Z,10.55
2023-05-14T23:57:07.370Z,10.57
